Time;durP1;ratioP1;P1;durP2;ratioP2;P2;SDS_P1;SDS_P2;PMS_P1;PMS_P2;Temp;Humidity;BMP_temperature;BMP_pressure;BME280_temperature;BME280_humidity;BME280_pressure;Samples;Min_cycle;Max_cycle;Signal;HPM_P1;HPM_P2
2023/11/20 00:00:53;;;;;;;9.97;6.90;;;;;;;1.89;89.57;99433.69;5114678;27;20204;-63
2023/11/20 00:03:24;;;;;;;11.47;7.43;;;;;;;1.85;90.29;99427.72;5117290;27;20219;-63
2023/11/20 00:05:52;;;;;;;10.07;7.83;;;;;;;1.91;90.71;99430.34;5107676;27;20192;-64
2023/11/20 00:08:20;;;;;;;11.67;8.33;;;;;;;1.92;89.43;99431.19;5106765;27;20215;-69
2023/11/20 00:10:49;;;;;;;10.20;7.60;;;;;;;1.94;90.40;99435.44;5115981;27;20302;-62
2023/11/20 00:13:17;;;;;;;11.13;7.73;;;;;;;1.96;90.07;99419.38;5100618;28;20212;-63
2023/11/20 00:15:45;;;;;;;12.27;8.60;;;;;;;1.92;89.72;99418.50;5120893;27;20729;-62
2023/11/20 00:18:13;;;;;;;10.33;7.13;;;;;;;1.99;90.05;99421.94;5108578;27;20203;-64
2023/11/20 00:20:41;;;;;;;11.33;7.90;;;;;;;1.98;89.84;99430.41;5096632;28;20696;-65
2023/11/20 00:23:09;;;;;;;10.07;7.73;;;;;;;1.99;90.38;99437.19;5110818;27;20200;-63
2023/11/20 00:25:37;;;;;;;11.37;7.80;;;;;;;2.00;89.32;99426.22;5114494;27;20272;-66
2023/11/20 00:28:06;;;;;;;12.27;7.90;;;;;;;2.01;90.11;99431.28;5113849;27;20231;-63
2023/11/20 00:30:34;;;;;;;10.20;8.00;;;;;;;2.02;89.76;99427.91;5118146;27;20232;-65
2023/11/20 00:33:03;;;;;;;9.37;7.07;;;;;;;2.01;89.52;99425.38;5124380;27;20596;-65
2023/11/20 00:35:31;;;;;;;10.37;7.13;;;;;;;2.04;89.89;99445.75;5112707;27;20206;-65
2023/11/20 00:37:59;;;;;;;10.23;7.33;;;;;;;2.04;89.90;99435.56;5116711;27;20291;-63
2023/11/20 00:40:27;;;;;;;8.67;6.93;;;;;;;2.06;90.23;99437.31;5117795;27;20225;-65
2023/11/20 00:42:55;;;;;;;9.90;6.97;;;;;;;2.08;89.60;99438.16;5114615;27;20206;-64
2023/11/20 00:45:24;;;;;;;11.33;7.53;;;;;;;2.10;89.11;99431.44;5113035;27;20594;-65
2023/11/20 00:47:52;;;;;;;10.20;7.63;;;;;;;2.11;88.63;99427.19;5115878;27;20202;-66
2023/11/20 00:50:20;;;;;;;9.23;7.30;;;;;;;2.09;89.91;99439.00;5110936;28;20227;-66
2023/11/20 00:52:48;;;;;;;10.57;7.23;;;;;;;2.07;88.98;99433.06;5109453;28;20223;-64
2023/11/20 00:55:16;;;;;;;8.53;6.33;;;;;;;2.03;89.51;99439.81;5102989;28;20221;-65
2023/11/20 00:57:44;;;;;;;9.80;7.50;;;;;;;2.02;89.51;99437.22;5106705;28;20204;-63
2023/11/20 01:00:14;;;;;;;12.03;7.00;;;;;;;2.04;89.90;99440.66;5116458;28;20207;-66
2023/11/20 01:02:43;;;;;;;10.53;7.53;;;;;;;2.00;90.32;99434.69;5114253;28;20211;-66
2023/11/20 01:05:11;;;;;;;9.47;7.10;;;;;;;1.98;90.24;99431.25;5106906;28;20248;-64
2023/11/20 01:07:40;;;;;;;8.00;6.73;;;;;;;2.03;89.99;99428.78;5102001;28;20208;-65
2023/11/20 01:10:09;;;;;;;9.20;6.70;;;;;;;2.02;90.93;99427.06;5114211;28;20729;-63
2023/11/20 01:12:37;;;;;;;9.63;6.77;;;;;;;2.05;90.12;99438.13;5112859;28;20212;-65
2023/11/20 01:15:06;;;;;;;8.17;6.40;;;;;;;2.06;90.93;99437.31;5106867;28;20643;-65
2023/11/20 01:17:35;;;;;;;8.00;6.23;;;;;;;2.08;91.10;99433.09;5114349;27;20192;-66
2023/11/20 01:20:06;;;;;;;8.23;6.43;;;;;;;2.07;90.15;99430.53;5125395;27;20200;-66
2023/11/20 01:22:34;;;;;;;8.53;6.90;;;;;;;2.05;89.91;99425.41;5121752;27;20204;-67
2023/11/20 01:25:03;;;;;;;9.60;6.97;;;;;;;2.06;90.35;99419.53;5105636;27;20227;-66
2023/11/20 01:27:32;;;;;;;7.53;6.03;;;;;;;2.08;89.95;99422.91;5108127;27;20606;-66
2023/11/20 01:30:00;;;;;;;9.43;6.43;;;;;;;2.12;90.86;99417.03;5112070;27;20264;-66
2023/11/20 01:32:28;;;;;;;8.00;6.37;;;;;;;2.14;89.50;99420.47;5112669;27;20215;-65
2023/11/20 01:34:57;;;;;;;9.30;6.20;;;;;;;2.13;90.14;99418.75;5113652;27;20223;-66
2023/11/20 01:37:26;;;;;;;9.33;6.13;;;;;;;2.17;90.68;99432.34;5116927;27;20693;-67
2023/11/20 01:39:54;;;;;;;8.67;5.50;;;;;;;2.15;89.98;99428.94;5122675;27;20651;-67
2023/11/20 01:42:22;;;;;;;7.40;5.87;;;;;;;2.10;88.52;99428.00;5119350;27;20196;-66
2023/11/20 01:44:50;;;;;;;7.07;5.43;;;;;;;2.02;89.53;99409.28;5111517;27;20209;-66
2023/11/20 01:47:18;;;;;;;6.93;5.50;;;;;;;2.00;89.65;99424.53;5108191;27;20249;-66
2023/11/20 01:49:47;;;;;;;8.13;5.63;;;;;;;1.99;89.96;99432.09;5117401;27;20208;-67
2023/11/20 01:52:15;;;;;;;8.30;5.90;;;;;;;2.00;90.21;99434.69;5116258;27;20210;-65
2023/11/20 01:54:44;;;;;;;6.97;5.57;;;;;;;2.04;91.73;99441.50;5117945;27;20195;-67
2023/11/20 01:57:13;;;;;;;8.00;5.90;;;;;;;2.09;90.93;99434.78;5115793;27;20301;-67
2023/11/20 01:59:41;;;;;;;7.53;5.50;;;;;;;2.11;90.61;99432.28;5123708;27;20912;-67
2023/11/20 02:02:10;;;;;;;8.07;5.87;;;;;;;2.08;91.44;99440.72;5117512;27;20198;-66
2023/11/20 02:04:39;;;;;;;7.77;6.00;;;;;;;2.10;90.14;99428.00;5105675;27;20756;-67
2023/11/20 02:07:08;;;;;;;7.63;5.90;;;;;;;2.12;90.14;99426.34;5115037;27;20207;-69
2023/11/20 02:09:36;;;;;;;7.00;5.43;;;;;;;2.14;90.48;99427.25;5108624;27;20620;-68
2023/11/20 02:12:07;;;;;;;8.20;6.17;;;;;;;2.17;90.74;99428.13;5104972;27;20226;-69
2023/11/20 02:14:35;;;;;;;7.10;5.37;;;;;;;2.19;91.03;99423.06;5115824;27;20235;-67
2023/11/20 02:17:04;;;;;;;6.50;5.27;;;;;;;2.20;90.64;99417.13;5126266;27;20192;-71
2023/11/20 02:19:32;;;;;;;7.47;5.57;;;;;;;2.19;89.62;99425.59;5116809;27;20203;-69
2023/11/20 02:22:00;;;;;;;7.53;5.07;;;;;;;2.20;89.78;99422.22;5108418;27;20201;-70
2023/11/20 02:24:28;;;;;;;5.97;5.07;;;;;;;2.16;90.13;99421.31;5114318;27;20248;-67
2023/11/20 02:27:14;;;;;;;7.33;5.60;;;;;;;2.17;90.42;99425.59;5114779;27;20283;-70
2023/11/20 02:30:01;;;;;;;8.30;5.57;;;;;;;2.16;89.39;99421.31;5121298;27;20203;-66
2023/11/20 02:32:29;;;;;;;6.40;5.13;;;;;;;2.13;90.04;99417.88;5111637;27;20210;-70
2023/11/20 02:34:57;;;;;;;7.30;5.27;;;;;;;2.09;90.93;99421.22;5125760;27;20654;-68
2023/11/20 02:37:27;;;;;;;8.20;5.80;;;;;;;2.11;90.67;99425.50;5110698;27;20200;-69
2023/11/20 02:39:55;;;;;;;6.97;5.53;;;;;;;2.09;90.22;99418.69;5120842;27;20726;-70
2023/11/20 02:42:23;;;;;;;8.23;5.53;;;;;;;2.09;90.22;99411.91;5115640;27;20295;-69
2023/11/20 02:44:52;;;;;;;8.97;5.57;;;;;;;2.11;91.26;99417.88;5125015;27;20581;-68
2023/11/20 02:47:22;;;;;;;9.50;5.10;;;;;;;2.12;90.75;99421.28;5124948;27;20589;-68
2023/11/20 02:49:50;;;;;;;6.70;5.13;;;;;;;2.11;90.82;99420.41;5121754;27;20209;-68
2023/11/20 02:52:18;;;;;;;5.90;4.60;;;;;;;2.12;90.42;99419.56;5123020;27;20678;-67
2023/11/20 02:54:46;;;;;;;7.33;5.40;;;;;;;2.11;90.98;99415.34;5118772;27;20201;-70
2023/11/20 02:57:14;;;;;;;7.10;5.33;;;;;;;2.13;90.86;99412.81;5099306;28;20562;-69
2023/11/20 02:59:42;;;;;;;7.23;5.07;;;;;;;2.15;90.91;99417.06;5113764;27;20628;-66
2023/11/20 03:02:12;;;;;;;6.50;4.87;;;;;;;2.13;90.04;99415.34;5116881;27;20287;-68
2023/11/20 03:04:40;;;;;;;6.77;4.53;;;;;;;2.13;90.60;99417.88;5115188;27;20227;-68
2023/11/20 03:07:08;;;;;;;9.77;5.60;;;;;;;2.12;90.82;99418.72;5112445;27;20235;-68
2023/11/20 03:09:36;;;;;;;7.07;5.23;;;;;;;2.09;91.18;99408.53;5119930;27;20204;-69
2023/11/20 03:12:05;;;;;;;6.17;4.87;;;;;;;2.09;90.23;99413.59;5119655;27;20298;-68
2023/11/20 03:14:33;;;;;;;8.07;5.77;;;;;;;2.09;91.53;99408.53;5106002;27;20225;-68
2023/11/20 03:17:02;;;;;;;7.63;5.27;;;;;;;2.11;91.18;99411.94;5114453;27;20546;-67
2023/11/20 03:19:35;;;;;;;6.63;5.20;;;;;;;2.11;90.65;99411.94;5116232;27;20207;-71
2023/11/20 03:22:03;;;;;;;7.10;4.80;;;;;;;2.12;92.04;99400.94;5107959;27;20211;-67
2023/11/20 03:24:31;;;;;;;7.23;5.40;;;;;;;2.11;91.34;99391.63;5120386;27;20199;-70
2023/11/20 03:26:59;;;;;;;7.00;5.23;;;;;;;2.14;91.44;99402.69;5112642;27;20212;-70
2023/11/20 03:29:28;;;;;;;8.00;5.67;;;;;;;2.12;91.60;99401.78;5112306;27;21024;-68
2023/11/20 03:31:57;;;;;;;9.13;6.20;;;;;;;2.14;91.13;99410.31;5110290;27;20211;-66
2023/11/20 03:34:25;;;;;;;7.80;5.43;;;;;;;2.16;91.33;99407.75;5112636;27;20626;-70
2023/11/20 03:36:55;;;;;;;8.37;6.00;;;;;;;2.17;90.48;99406.91;5119847;27;20256;-69
2023/11/20 03:39:24;;;;;;;7.90;6.13;;;;;;;2.17;90.90;99402.72;5111852;27;20626;-68
2023/11/20 03:41:52;;;;;;;7.53;6.37;;;;;;;2.19;91.21;99400.19;5118839;27;20703;-69
2023/11/20 03:44:20;;;;;;;9.23;6.97;;;;;;;2.16;90.59;99395.91;5122161;27;20658;-71
2023/11/20 03:46:47;;;;;;;7.27;5.87;;;;;;;2.15;91.76;99391.66;5119193;27;20235;-67
2023/11/20 03:49:15;;;;;;;8.57;6.50;;;;;;;2.14;91.95;99396.75;5118949;27;20235;-68
2023/11/20 03:51:43;;;;;;;8.33;6.83;;;;;;;2.11;92.09;99386.53;5105794;27;20200;-69
2023/11/20 03:54:13;;;;;;;12.10;7.10;;;;;;;2.06;91.60;99388.16;5107993;27;20211;-67
2023/11/20 03:56:41;;;;;;;9.17;7.07;;;;;;;2.01;92.69;99380.47;5114958;27;20268;-68
2023/11/20 03:59:09;;;;;;;10.90;7.87;;;;;;;1.98;91.39;99377.91;5105969;27;20207;-69
2023/11/20 04:01:36;;;;;;;10.03;7.60;;;;;;;1.89;92.64;99381.19;5107386;27;20265;-68
2023/11/20 04:04:05;;;;;;;12.20;8.43;;;;;;;1.82;92.41;99381.09;5113016;27;20204;-67
2023/11/20 04:06:33;;;;;;;11.57;8.20;;;;;;;1.80;92.96;99370.91;5112828;27;20208;-68
2023/11/20 04:09:02;;;;;;;11.70;9.20;;;;;;;1.78;93.31;99381.91;5112327;27;20683;-68
2023/11/20 04:11:31;;;;;;;11.80;8.03;;;;;;;1.79;93.95;99379.34;5113505;27;20241;-67
2023/11/20 04:13:59;;;;;;;13.20;8.57;;;;;;;1.82;94.77;99381.94;5112332;27;20618;-67
2023/11/20 04:16:27;;;;;;;10.33;7.80;;;;;;;1.86;94.88;99378.59;5117228;27;20203;-67
2023/11/20 04:18:55;;;;;;;13.90;8.73;;;;;;;1.88;94.67;99373.56;5102856;27;20207;-70
2023/11/20 04:21:25;;;;;;;12.00;8.30;;;;;;;1.91;94.61;99377.00;5114939;27;20204;-70
2023/11/20 04:23:53;;;;;;;12.57;8.43;;;;;;;1.93;94.39;99371.91;5113919;27;20655;-68
2023/11/20 04:26:22;;;;;;;13.80;8.70;;;;;;;1.91;93.21;99365.97;5114363;27;20292;-68
2023/11/20 04:28:51;;;;;;;15.07;9.23;;;;;;;1.93;93.68;99372.78;5108741;27;20290;-69
2023/11/20 04:31:19;;;;;;;13.00;9.33;;;;;;;1.93;92.91;99367.69;5120524;27;21030;-69
2023/11/20 04:33:47;;;;;;;13.90;8.67;;;;;;;1.91;93.81;99368.50;5116129;27;20706;-70
2023/11/20 04:36:15;;;;;;;12.57;8.63;;;;;;;1.91;93.61;99361.75;5110157;27;20195;-70
2023/11/20 04:38:44;;;;;;;12.23;8.70;;;;;;;1.90;93.57;99365.09;5112244;27;20226;-69
2023/11/20 04:41:12;;;;;;;12.13;8.73;;;;;;;1.93;93.73;99356.69;5117870;27;20203;-69
2023/11/20 04:43:40;;;;;;;13.67;8.93;;;;;;;1.91;93.40;99364.28;5113781;28;20196;-68
2023/11/20 04:46:10;;;;;;;13.27;9.57;;;;;;;1.91;93.66;99368.50;5110707;28;20683;-69
2023/11/20 04:48:38;;;;;;;13.03;8.40;;;;;;;1.91;93.41;99371.91;5103463;27;20573;-68
2023/11/20 04:51:06;;;;;;;15.10;9.40;;;;;;;1.91;93.41;99371.03;5114075;27;20266;-69
2023/11/20 04:53:35;;;;;;;14.80;9.17;;;;;;;1.96;93.32;99381.28;5105586;27;20239;-68
2023/11/20 04:56:08;;;;;;;13.83;9.10;;;;;;;1.97;93.63;99372.81;5110238;28;20565;-69
2023/11/20 04:58:35;;;;;;;14.70;8.00;;;;;;;2.01;93.41;99374.56;5111922;28;20212;-70
2023/11/20 05:01:06;;;;;;;14.37;9.47;;;;;;;2.00;93.27;99367.78;5124364;27;20673;-67
2023/11/20 05:03:38;;;;;;;13.67;8.70;;;;;;;2.00;94.07;99380.47;5110084;28;20200;-68
2023/11/20 05:06:07;;;;;;;14.73;9.20;;;;;;;1.97;93.03;99380.44;5111861;28;20227;-69
2023/11/20 05:08:35;;;;;;;11.47;7.97;;;;;;;1.96;94.26;99379.59;5113608;27;20588;-69
2023/11/20 05:11:03;;;;;;;11.80;8.40;;;;;;;1.97;93.52;99378.75;5114141;28;20203;-70
2023/11/20 05:13:31;;;;;;;11.50;8.13;;;;;;;2.00;94.15;99388.94;5107609;28;20302;-70
2023/11/20 05:16:00;;;;;;;14.13;8.77;;;;;;;2.00;93.33;99383.03;5100351;28;20266;-69
2023/11/20 05:18:28;;;;;;;13.77;8.83;;;;;;;2.02;93.35;99389.81;5101267;28;20218;-68
2023/11/20 05:20:57;;;;;;;13.97;8.03;;;;;;;2.00;93.81;99398.25;5114692;28;20281;-67
2023/11/20 05:23:25;;;;;;;14.27;8.43;;;;;;;2.00;94.08;99393.19;5113875;28;20203;-68
2023/11/20 05:25:54;;;;;;;12.23;7.97;;;;;;;1.96;94.14;99397.38;5118818;27;20203;-69
2023/11/20 05:28:22;;;;;;;12.43;7.97;;;;;;;1.90;94.20;99392.19;5109984;28;20219;-67
2023/11/20 05:30:51;;;;;;;9.70;7.20;;;;;;;1.88;93.41;99394.75;5118598;28;20288;-69
2023/11/20 05:33:19;;;;;;;13.27;8.67;;;;;;;1.84;93.94;99387.03;5104912;28;20196;-68
2023/11/20 05:35:47;;;;;;;16.83;7.97;;;;;;;1.88;94.85;99394.75;5114273;28;20217;-69
2023/11/20 05:38:16;;;;;;;10.87;7.57;;;;;;;1.90;94.37;99393.06;5108128;28;20287;-70
2023/11/20 05:40:44;;;;;;;12.40;7.73;;;;;;;1.93;93.90;99393.09;5109661;28;20569;-70
2023/11/20 05:43:12;;;;;;;10.83;7.47;;;;;;;1.92;93.75;99391.41;5112471;28;20223;-69
2023/11/20 05:45:40;;;;;;;13.07;7.37;;;;;;;1.97;94.05;99393.13;5111425;28;20249;-68
2023/11/20 05:48:08;;;;;;;8.30;6.43;;;;;;;2.01;94.18;99394.88;5113618;28;20212;-71
2023/11/20 05:50:36;;;;;;;9.10;6.47;;;;;;;2.04;94.48;99394.91;5124869;28;20203;-70
2023/11/20 05:53:04;;;;;;;9.00;6.00;;;;;;;2.09;93.25;99400.91;5108837;28;20203;-71
2023/11/20 05:55:34;;;;;;;8.47;6.07;;;;;;;2.07;93.85;99400.03;5109063;28;20196;-71
2023/11/20 05:58:02;;;;;;;9.40;6.40;;;;;;;2.04;92.57;99398.31;5102333;28;20659;-70
2023/11/20 06:00:31;;;;;;;10.17;5.67;;;;;;;2.03;93.73;99398.31;5120303;27;20659;-70
2023/11/20 06:03:00;;;;;;;7.90;5.30;;;;;;;2.05;92.57;99396.63;5104637;27;21003;-70
2023/11/20 06:05:28;;;;;;;7.57;5.57;;;;;;;2.11;92.58;99399.25;5116001;27;20593;-70
2023/11/20 06:07:56;;;;;;;7.30;5.60;;;;;;;2.11;92.18;99402.63;5115755;27;20235;-68
2023/11/20 06:10:24;;;;;;;7.70;5.30;;;;;;;2.06;91.23;99413.56;5105921;27;20235;-71
2023/11/20 06:12:53;;;;;;;7.27;4.80;;;;;;;1.99;92.44;99411.78;5114539;27;20209;-69
2023/11/20 06:15:21;;;;;;;8.13;4.73;;;;;;;1.90;92.05;99417.59;5104622;27;20232;-68
2023/11/20 06:17:49;;;;;;;9.10;5.33;;;;;;;1.83;93.51;99418.34;5103305;27;20196;-69
2023/11/20 06:20:18;;;;;;;6.10;4.93;;;;;;;1.82;93.01;99422.59;5108559;27;20296;-72
2023/11/20 06:22:47;;;;;;;6.13;4.47;;;;;;;1.81;94.02;99425.97;5104080;27;20204;-70
2023/11/20 06:25:15;;;;;;;5.57;4.20;;;;;;;1.80;94.17;99424.22;5114432;27;20570;-69
2023/11/20 06:27:43;;;;;;;5.50;4.43;;;;;;;1.78;93.94;99433.53;5115316;27;20555;-70
2023/11/20 06:30:13;;;;;;;7.60;5.03;;;;;;;1.80;93.33;99429.31;5114904;27;20208;-69
2023/11/20 06:32:41;;;;;;;6.77;4.37;;;;;;;1.77;94.40;99424.22;5115321;27;20219;-70
2023/11/20 06:35:10;;;;;;;5.60;4.03;;;;;;;1.75;93.50;99433.50;5116489;27;20238;-71
2023/11/20 06:37:38;;;;;;;9.13;4.77;;;;;;;1.73;94.87;99440.25;5123590;27;20195;-72
2023/11/20 06:40:08;;;;;;;7.13;4.40;;;;;;;1.76;94.76;99437.72;5121307;27;20258;-70
2023/11/20 06:42:36;;;;;;;5.73;4.40;;;;;;;1.79;94.56;99440.31;5122273;27;20762;-70
2023/11/20 06:45:06;;;;;;;5.13;3.70;;;;;;;1.75;94.48;99438.56;5117604;27;20235;-70
2023/11/20 06:47:35;;;;;;;7.50;4.50;;;;;;;1.78;94.41;99443.69;5103245;27;20243;-72
2023/11/20 06:50:04;;;;;;;6.53;4.13;;;;;;;1.80;95.17;99447.09;5119728;27;20195;-71
2023/11/20 06:52:32;;;;;;;5.83;4.20;;;;;;;1.81;94.91;99441.19;5105023;27;20207;-74
2023/11/20 06:55:00;;;;;;;5.63;4.30;;;;;;;1.87;96.15;99445.50;5108631;27;20203;-72
2023/11/20 06:57:29;;;;;;;6.20;4.20;;;;;;;1.95;95.20;99451.53;5105824;27;20713;-72
2023/11/20 06:59:57;;;;;;;4.90;3.70;;;;;;;2.04;95.91;99449.13;5127937;27;20856;-71
2023/11/20 07:02:25;;;;;;;4.77;3.70;;;;;;;2.09;94.52;99450.03;5117901;27;20239;-72
2023/11/20 07:04:56;;;;;;;5.20;3.60;;;;;;;2.12;94.98;99449.22;5109263;27;20287;-70
2023/11/20 07:07:25;;;;;;;5.03;4.03;;;;;;;2.16;94.12;99450.97;5116949;27;20212;-72
2023/11/20 07:09:54;;;;;;;4.77;3.67;;;;;;;2.15;93.82;99451.81;5121857;27;20560;-71
2023/11/20 07:12:22;;;;;;;4.23;3.23;;;;;;;2.18;94.11;99454.41;5117469;27;20200;-73
2023/11/20 07:14:52;;;;;;;7.03;4.07;;;;;;;2.21;94.42;99459.53;5115036;27;20343;-68
2023/11/20 07:17:20;;;;;;;8.67;4.73;;;;;;;2.21;94.61;99463.72;5121327;27;20276;-70
2023/11/20 07:19:48;;;;;;;7.10;4.20;;;;;;;2.22;93.37;99468.84;5111888;27;20662;-71
2023/11/20 07:22:17;;;;;;;5.70;4.17;;;;;;;2.26;94.66;99457.88;5112542;27;20231;-70
2023/11/20 07:24:45;;;;;;;9.93;4.67;;;;;;;2.30;93.86;99469.78;5119058;27;20218;-70
2023/11/20 07:27:13;;;;;;;5.30;3.80;;;;;;;2.26;92.70;99470.59;5117410;27;20746;-69
2023/11/20 07:29:42;;;;;;;5.83;4.23;;;;;;;2.27;93.52;99469.75;5108952;27;20219;-69
2023/11/20 07:32:09;;;;;;;9.53;5.07;;;;;;;2.31;94.07;99466.41;5105228;27;20207;-71
2023/11/20 07:34:37;;;;;;;4.97;4.37;;;;;;;2.37;94.22;99470.72;5113607;27;20703;-69
2023/11/20 07:37:05;;;;;;;5.67;4.23;;;;;;;2.45;93.76;99475.91;5113108;28;20199;-72
2023/11/20 07:39:35;;;;;;;5.53;4.43;;;;;;;2.46;93.99;99470.81;5113084;27;20604;-71
2023/11/20 07:42:03;;;;;;;6.97;4.90;;;;;;;2.46;93.45;99469.97;5103716;28;20655;-70
2023/11/20 07:44:30;;;;;;;5.83;4.00;;;;;;;2.46;92.44;99472.50;5113304;28;20283;-70
2023/11/20 07:46:59;;;;;;;5.13;3.83;;;;;;;2.46;93.12;99475.06;5109950;27;20294;-68
2023/11/20 07:49:27;;;;;;;5.73;4.57;;;;;;;2.45;92.84;99470.81;5115364;27;20614;-72
2023/11/20 07:51:56;;;;;;;5.80;4.13;;;;;;;2.45;92.44;99478.44;5106639;27;20203;-70
2023/11/20 07:54:25;;;;;;;7.03;4.13;;;;;;;2.46;92.48;99480.13;5110761;28;20844;-70
2023/11/20 07:56:58;;;;;;;6.30;4.33;;;;;;;2.49;92.68;99477.63;5109216;27;20214;-70
2023/11/20 07:59:26;;;;;;;5.03;4.10;;;;;;;2.51;93.09;99481.91;5112962;28;20200;-71
2023/11/20 08:01:54;;;;;;;8.47;3.80;;;;;;;2.49;91.88;99478.47;5113211;28;20208;-72
2023/11/20 08:04:22;;;;;;;4.27;3.60;;;;;;;2.47;92.72;99476.75;5117302;27;20579;-71
2023/11/20 08:06:50;;;;;;;5.80;4.00;;;;;;;2.48;93.41;99478.47;5108630;28;20245;-72
2023/11/20 08:09:18;;;;;;;5.47;4.03;;;;;;;2.51;92.38;99475.97;5120466;27;20239;-72
2023/11/20 08:11:46;;;;;;;6.70;4.20;;;;;;;2.54;93.67;99478.53;5114835;27;20191;-72
2023/11/20 08:14:15;;;;;;;6.13;3.57;;;;;;;2.61;92.44;99475.22;5122984;27;20710;-71
2023/11/20 08:16:43;;;;;;;5.43;3.53;;;;;;;2.61;93.24;99462.50;5123568;27;20294;-72
2023/11/20 08:19:12;;;;;;;5.93;4.10;;;;;;;2.67;92.28;99473.59;5112732;28;20207;-72
2023/11/20 08:21:40;;;;;;;6.93;4.00;;;;;;;2.70;91.37;99475.34;5101867;27;20554;-72
2023/11/20 08:24:11;;;;;;;5.03;4.00;;;;;;;2.71;92.79;99476.19;5108121;28;20200;-72
2023/11/20 08:26:39;;;;;;;5.87;4.17;;;;;;;2.70;91.92;99477.88;5111415;28;20636;-73
2023/11/20 08:29:07;;;;;;;5.20;3.73;;;;;;;2.74;92.24;99478.78;5112689;28;20585;-70
2023/11/20 08:31:37;;;;;;;6.53;4.07;;;;;;;2.76;93.05;99475.41;5119511;27;20286;-72
2023/11/20 08:34:05;;;;;;;5.07;4.10;;;;;;;2.80;92.58;99472.06;5117170;27;20561;-71
2023/11/20 08:36:33;;;;;;;6.67;4.50;;;;;;;2.83;92.99;99478.84;5113534;27;20195;-67
2023/11/20 08:39:05;;;;;;;11.33;4.50;;;;;;;2.88;91.83;99469.59;5107778;27;20562;-68
2023/11/20 08:41:33;;;;;;;6.27;4.50;;;;;;;2.90;91.37;99468.75;5106041;27;20199;-68
2023/11/20 08:44:01;;;;;;;7.80;4.57;;;;;;;2.88;90.74;99469.59;5111860;27;20565;-66
2023/11/20 08:46:29;;;;;;;5.57;4.53;;;;;;;2.86;91.79;99472.09;5112887;27;20672;-68
2023/11/20 08:48:58;;;;;;;6.53;4.57;;;;;;;2.93;93.33;99470.47;5121890;27;20215;-73
2023/11/20 08:51:27;;;;;;;7.40;4.80;;;;;;;3.01;92.05;99481.59;5114506;28;21534;-71
2023/11/20 08:53:55;;;;;;;7.37;4.90;;;;;;;3.04;92.22;99480.78;5113507;27;20639;-66
2023/11/20 08:56:23;;;;;;;5.50;4.57;;;;;;;3.01;90.99;99481.59;5118398;28;20211;-69
2023/11/20 08:58:52;;;;;;;5.53;4.70;;;;;;;3.03;91.77;99479.94;5107629;28;20260;-69
2023/11/20 09:01:29;;;;;;;8.50;5.27;;;;;;;3.00;91.08;99479.03;5107195;28;20268;-69
2023/11/20 09:03:59;;;;;;;7.40;4.97;;;;;;;2.99;89.89;99473.09;5107445;27;20195;-70
2023/11/20 09:06:27;;;;;;;5.80;5.07;;;;;;;3.00;91.92;99479.03;5106633;27;20208;-69
2023/11/20 09:08:57;;;;;;;6.33;5.40;;;;;;;3.04;90.33;99473.13;5108330;28;20729;-70
2023/11/20 09:11:25;;;;;;;6.03;5.27;;;;;;;3.06;90.81;99476.56;5114125;28;20208;-75
2023/11/20 09:13:53;;;;;;;6.67;5.17;;;;;;;3.07;91.26;99473.16;5122457;28;20252;-73
2023/11/20 09:16:21;;;;;;;6.80;5.07;;;;;;;3.05;91.70;99485.00;5108937;28;21062;-73
2023/11/20 09:18:50;;;;;;;7.57;5.43;;;;;;;3.04;90.49;99470.59;5114940;28;20202;-74
2023/11/20 09:21:19;;;;;;;7.00;5.43;;;;;;;3.04;91.88;99473.13;5107299;28;20203;-76
2023/11/20 09:23:50;;;;;;;7.27;5.30;;;;;;;3.08;92.57;99469.78;5111931;28;20211;-75
2023/11/20 09:26:18;;;;;;;8.77;5.33;;;;;;;3.09;91.35;99467.25;5114302;28;20875;-73
2023/11/20 09:28:46;;;;;;;11.10;5.63;;;;;;;3.16;91.57;99470.69;5104934;28;20503;-72
2023/11/20 09:31:19;;;;;;;6.77;5.30;;;;;;;3.21;90.67;99463.97;5108070;28;20200;-76
2023/11/20 09:33:48;;;;;;;6.97;5.37;;;;;;;3.22;91.20;99465.66;5112160;28;20197;-76
2023/11/20 09:36:19;;;;;;;8.67;5.27;;;;;;;3.25;90.31;99475.03;5115759;28;20200;-74
2023/11/20 09:38:47;;;;;;;6.47;4.83;;;;;;;3.19;89.81;99468.19;5116447;28;20677;-73
2023/11/20 09:41:15;;;;;;;8.40;5.63;;;;;;;3.09;91.43;99464.72;5118080;27;20306;-75
2023/11/20 09:43:44;;;;;;;7.27;5.43;;;;;;;3.01;91.18;99465.47;5112734;27;20597;-74
2023/11/20 09:46:15;;;;;;;6.60;4.93;;;;;;;2.94;92.08;99464.53;5108454;27;20205;-70
2023/11/20 09:48:44;;;;;;;6.20;4.80;;;;;;;2.94;93.16;99464.53;5106643;28;20216;-73
2023/11/20 09:51:13;;;;;;;6.90;4.90;;;;;;;2.98;93.36;99462.88;5115297;27;20279;-73
2023/11/20 09:53:43;;;;;;;7.67;4.80;;;;;;;3.02;94.06;99462.06;5117698;27;20199;-73
2023/11/20 09:56:13;;;;;;;6.40;5.10;;;;;;;3.01;93.63;99465.47;5113768;27;20212;-72
2023/11/20 09:58:42;;;;;;;6.80;5.00;;;;;;;3.01;94.02;99468.88;5117304;27;20204;-73
2023/11/20 10:01:13;;;;;;;5.90;4.73;;;;;;;3.05;93.01;99477.38;5112962;27;20595;-76
2023/11/20 10:03:43;;;;;;;6.97;5.07;;;;;;;3.02;92.77;99469.72;5116746;27;20252;-70
2023/11/20 10:06:18;;;;;;;7.23;4.70;;;;;;;3.06;92.34;99466.38;5099126;28;20212;-68
2023/11/20 10:08:50;;;;;;;5.70;4.50;;;;;;;3.09;92.39;99464.72;5104895;27;20223;-74
2023/11/20 10:11:22;;;;;;;7.30;5.20;;;;;;;3.10;92.73;99465.56;5110678;27;20203;-77
2023/11/20 10:13:52;;;;;;;7.27;5.33;;;;;;;3.10;91.53;99463.03;5117669;27;20211;-76
2023/11/20 10:16:22;;;;;;;5.90;4.73;;;;;;;3.07;92.10;99456.19;5107221;28;20219;-76
2023/11/20 10:18:52;;;;;;;7.23;5.07;;;;;;;3.05;92.39;99467.19;5111891;27;20208;-70
2023/11/20 10:21:21;;;;;;;8.67;4.73;;;;;;;3.05;92.78;99464.66;5116298;27;20196;-69
2023/11/20 10:23:54;;;;;;;7.10;4.60;;;;;;;3.08;91.64;99469.78;5118879;27;20557;-66
2023/11/20 10:26:23;;;;;;;7.27;4.53;;;;;;;3.11;91.51;99463.03;5118918;27;20203;-70
2023/11/20 10:28:51;;;;;;;5.20;4.30;;;;;;;3.02;91.16;99456.97;5111734;27;20205;-66
2023/11/20 10:31:19;;;;;;;6.50;4.10;;;;;;;3.00;92.12;99456.13;5120747;27;20203;-71
2023/11/20 10:34:01;;;;;;;4.83;3.90;;;;;;;2.96;91.47;99451.84;5112768;27;20206;-70
2023/11/20 10:36:29;;;;;;;6.03;4.57;;;;;;;2.92;92.47;99450.13;5115171;27;20203;-63
2023/11/20 10:38:59;;;;;;;5.60;3.77;;;;;;;2.92;92.53;99445.88;5109572;27;20535;-65
2023/11/20 10:41:29;;;;;;;5.93;4.10;;;;;;;2.89;92.78;99450.94;5116200;27;20219;-66
2023/11/20 10:43:59;;;;;;;6.20;4.03;;;;;;;2.91;92.48;99446.72;5116314;27;20203;-67
2023/11/20 10:46:27;;;;;;;9.20;4.63;;;;;;;2.81;91.10;99447.47;5103874;27;20285;-68
2023/11/20 10:49:05;;;;;;;7.00;4.57;;;;;;;2.82;93.22;99449.16;5102605;27;20208;-66
2023/11/20 10:51:35;;;;;;;6.30;4.23;;;;;;;2.86;92.90;99446.66;5109845;27;20215;-66
2023/11/20 10:54:14;;;;;;;7.57;4.60;;;;;;;2.89;92.04;99451.78;5108210;27;20636;-67
2023/11/20 10:56:43;;;;;;;8.10;4.73;;;;;;;2.96;93.63;99451.84;5113170;27;20199;-67
2023/11/20 10:59:13;;;;;;;6.80;4.13;;;;;;;2.99;92.58;99446.81;5113698;28;20231;-69
2023/11/20 11:01:42;;;;;;;7.33;4.67;;;;;;;2.97;92.25;99441.69;5120660;27;20231;-68
2023/11/20 11:04:13;;;;;;;7.80;4.47;;;;;;;2.94;92.01;99444.19;5110142;27;20208;-68
2023/11/20 11:06:43;;;;;;;7.27;4.83;;;;;;;2.90;92.78;99447.56;5110795;27;20255;-70
2023/11/20 11:09:16;;;;;;;6.57;4.77;;;;;;;2.88;93.07;99445.00;5113142;28;20291;-69
2023/11/20 11:11:45;;;;;;;8.33;5.10;;;;;;;2.84;92.01;99443.28;5114837;27;20200;-69
2023/11/20 11:14:16;;;;;;;7.03;4.60;;;;;;;2.80;93.81;99441.53;5116094;27;20235;-71
2023/11/20 11:16:52;;;;;;;7.97;4.67;;;;;;;2.76;93.58;99449.09;5120791;27;20211;-72
2023/11/20 11:19:26;;;;;;;8.10;4.60;;;;;;;2.80;93.83;99449.16;5115600;27;21110;-69
2023/11/20 11:22:00;;;;;;;7.57;4.80;;;;;;;2.83;93.29;99453.41;5121378;27;20306;-71
2023/11/20 11:24:33;;;;;;;6.83;4.93;;;;;;;2.77;93.48;99446.59;5112064;28;20669;-70
2023/11/20 11:27:03;;;;;;;4.83;4.07;;;;;;;2.76;92.52;99442.34;5117665;27;20231;-69
2023/11/20 11:29:35;;;;;;;7.07;4.70;;;;;;;2.70;92.54;99433.78;5118545;27;20203;-69
2023/11/20 11:32:28;;;;;;;4.97;4.27;;;;;;;2.64;94.46;99440.50;5114128;27;20208;-67
2023/11/20 11:35:17;;;;;;;4.97;3.93;;;;;;;2.60;93.57;99432.84;5105704;27;20714;-64
2023/11/20 11:37:55;;;;;;;6.10;3.90;;;;;;;2.59;94.18;99418.41;5116360;27;20294;-63
2023/11/20 11:40:42;;;;;;;7.47;4.77;;;;;;;2.58;94.56;99425.19;5115084;27;20199;-67
2023/11/20 11:43:17;;;;;;;5.63;3.87;;;;;;;2.53;94.04;99429.38;5115453;27;20218;-66
2023/11/20 11:45:49;;;;;;;6.43;4.60;;;;;;;2.56;94.31;99433.66;5118459;27;20210;-65
2023/11/20 11:48:17;;;;;;;8.43;5.17;;;;;;;2.63;95.73;99427.78;5111089;28;20227;-64